CPX676 Details

Departure: Providenciales International Airport (MBPV)
Arrival: Lynden Pindling International Airport (MYNN) at N/A
Route: PVN BR2L DUKKY A555 ZQA
Notes:


Current Weather Information
MBPV 230000Z 04006KT 9999 SCT012 28/23 Q1013
MYNN 230800Z 08004KT 9999 SCT020 27/24 A2999